CheckWX is a tool to help pilots better visualize weather data.  It is not intended as a substitute for an official pre-flight weather briefing.

20:29:21 UTC

CYHA METAR
Quaqtaq Airport
Quaqtaq, Canada
Current

29 mins ago

CYHA 212000Z 34011KT 15SM SCT036 SCT180 05/01 A2977 RMK SC3AC1 AC TR SLP085
Observed
Sep-21 @ 20:00 UTC
Wind
  • 340° at 11 KTS
Visibility
15 SM
Flight Rules
VFR
Cloud Levels
  • Scattered at 3,600' AGL
  • Scattered at 18,000' AGL
Temperature
C / 41°F
Dewpoint
C / 34°F
Humidity
76%
Altimeter
29.77" Hg
Pressure
1008.12 hPa
Previous

1 hour ago

CYHA 211900Z 31011G17KT 15SM BKN036 BKN180 05/01 A2978 RMK SC7AC1 AC TR TCU ASOCTD OCNL -SHRA SLP088
Observed
Sep-21 @ 19:00 UTC
Wind
  • 310° at 11 KTS
  • Gusting to 17 KTS
Visibility
15 SM
Flight Rules
VFR
Cloud Levels
  • Broken at 3,600' AGL
  • Broken at 18,000' AGL
Temperature
C / 41°F
Dewpoint
C / 34°F
Humidity
76%
Altimeter
29.78" Hg
Pressure
1008.42 hPa
Previous

2 hours ago

CYHA 211800Z 31012G17KT 15SM FEW019 BKN030 BKN180 06/01 A2978 RMK CF1SC5AC2 CF TR SLP089
Observed
Sep-21 @ 18:00 UTC
Wind
  • 310° at 12 KTS
  • Gusting to 17 KTS
Visibility
15 SM
Flight Rules
MVFR
Cloud Levels
  • Few at 1,900' AGL
  • Broken at 3,000' AGL
  • Broken at 18,000' AGL
Temperature
C / 43°F
Dewpoint
C / 34°F
Humidity
71%
Altimeter
29.78" Hg
Pressure
1008.42 hPa